KBKB

Fullerton Landing Strip Airport

Louisiana, USA
METAR KBKB 250054Z AUTO 00000KT 10SM TS FEW110 27/22 A2999 RMK AO2 RAB20E36 TSB42 SLP180 P0000 T02670217 $
Observed Flight Rules
May-25 @ 00:54 UTC (26 minutes ago) Visual Flight Rules
Visibility Clouds Conditions
10 miles
  • Few at 11,000' AGL
  • Thunderstorm
Temperatures Readings Precipitation
Current 27°C / 81°F
Dewpoint 22°C / 72°F
Humidity 74%
Altimeter 29.99" Hg
Pressure 1018 hPa
Elevation 94
Current Rain 0.005
METAR KBKB 250054Z AUTO 00000KT 10SM TS FEW110 27/22 A2999 RMK AO2 RAB20E36 TSB42 SLP180 P0000 T02670217 $
Observed Flight Rules
May-25 @ 00:54 UTC
(26 minutes ago)
VFR
Clouds
  • Few at 11,000' AGL
Conditions
  • Thunderstorm
Temperature Dewpoint
27°C / 81°F 22°C / 72°F
Humidity Altimeter Pressure
74% 29.99" Hg 1018 hPa
Current Rain
0.005